createdAt,value
2018-04-30T00:02:07.295Z,61.10
2018-04-30T00:05:09.752Z,61.20
2018-04-30T00:08:12.205Z,61.20
2018-04-30T00:11:15.431Z,61.70
2018-04-30T00:14:17.886Z,61.70
2018-04-30T00:17:21.110Z,62.40
2018-04-30T00:20:23.570Z,62.40
2018-04-30T00:23:26.785Z,63.00
2018-04-30T00:26:29.257Z,63.00
2018-04-30T00:29:31.701Z,63.00
2018-04-30T00:32:34.933Z,63.20
2018-04-30T00:35:37.386Z,63.20
2018-04-30T00:38:40.603Z,63.60
2018-04-30T00:41:43.066Z,63.50
2018-04-30T00:44:45.521Z,63.80
2018-04-30T00:47:48.761Z,65.40
2018-04-30T00:50:51.265Z,64.50
2018-04-30T00:53:53.673Z,65.00
2018-04-30T00:56:56.902Z,65.40
2018-04-30T00:59:59.368Z,65.40
2018-04-30T01:03:01.810Z,65.80
2018-04-30T01:06:05.045Z,66.50
2018-04-30T01:09:07.494Z,66.40
2018-04-30T01:12:10.721Z,66.70
2018-04-30T01:15:13.165Z,66.60
2018-04-30T01:18:15.623Z,66.90
2018-04-30T01:21:18.086Z,67.10
2018-04-30T01:24:20.542Z,67.40
2018-04-30T01:27:23.001Z,67.80
2018-04-30T01:30:25.464Z,67.80
2018-04-30T01:33:27.921Z,67.80
2018-04-30T01:36:31.146Z,68.10
2018-04-30T01:39:33.598Z,67.90
2018-04-30T01:42:36.821Z,68.30
2018-04-30T01:45:39.265Z,68.10
2018-04-30T01:48:42.490Z,68.20
2018-04-30T01:51:44.950Z,69.10
2018-04-30T01:54:47.393Z,68.60
2018-04-30T01:57:49.845Z,68.80
2018-04-30T02:00:52.298Z,69.10
2018-04-30T02:03:54.762Z,69.30
2018-04-30T02:06:57.217Z,69.60
2018-04-30T02:10:00.438Z,69.90
2018-04-30T02:13:02.911Z,69.90
2018-04-30T02:16:05.365Z,70.20
2018-04-30T02:19:08.590Z,70.60
2018-04-30T02:22:11.046Z,70.60
2018-04-30T02:25:13.501Z,70.60
2018-04-30T02:28:16.753Z,70.70
2018-04-30T02:31:19.203Z,71.50
2018-04-30T02:34:21.654Z,71.20
2018-04-30T02:37:24.874Z,71.40
2018-04-30T02:40:27.332Z,71.40
2018-04-30T02:43:30.549Z,71.10
2018-04-30T02:46:33.008Z,71.10
2018-04-30T02:49:36.218Z,70.70
2018-04-30T02:52:38.673Z,70.60
2018-04-30T02:55:41.894Z,70.90
2018-04-30T02:58:44.350Z,70.90
2018-04-30T03:01:46.823Z,71.30
2018-04-30T03:04:50.026Z,71.70
2018-04-30T03:07:52.486Z,71.70
2018-04-30T03:10:55.706Z,72.40
2018-04-30T03:13:58.167Z,72.40
2018-04-30T03:17:01.397Z,72.90
2018-04-30T03:20:03.837Z,72.90
2018-04-30T03:23:06.298Z,73.10
2018-04-30T03:26:09.509Z,73.10
2018-04-30T03:29:11.973Z,73.00
2018-04-30T03:32:15.198Z,73.20
2018-04-30T03:35:17.637Z,73.20
2018-04-30T03:38:20.864Z,74.50
2018-04-30T03:41:23.313Z,73.70
2018-04-30T03:44:26.538Z,74.90
2018-04-30T03:47:28.993Z,74.10
2018-04-30T03:50:32.208Z,74.30
2018-04-30T03:53:34.662Z,74.20
2018-04-30T03:56:37.877Z,74.10
2018-04-30T03:59:40.351Z,74.10
2018-04-30T04:06:42.046Z,74.10
2018-04-30T04:09:44.493Z,74.20
2018-04-30T04:12:46.976Z,73.90
2018-04-30T04:15:49.397Z,73.40
2018-04-30T04:18:51.853Z,73.20
2018-04-30T04:21:54.301Z,72.90
2018-04-30T04:24:57.523Z,72.50
2018-04-30T04:27:59.987Z,72.40
2018-04-30T04:31:02.434Z,72.20
2018-04-30T04:34:04.889Z,72.20
2018-04-30T04:37:07.340Z,72.00
2018-04-30T04:40:09.804Z,71.70
2018-04-30T04:43:12.267Z,71.40
2018-04-30T04:46:14.713Z,71.70
2018-04-30T04:49:17.167Z,70.80
2018-04-30T04:52:19.625Z,71.30
2018-04-30T04:55:22.080Z,70.60
2018-04-30T04:58:24.538Z,70.90
2018-04-30T05:01:27.763Z,70.90
2018-04-30T05:04:30.224Z,70.90
2018-04-30T05:07:32.682Z,71.00
2018-04-30T05:10:35.902Z,70.60
2018-04-30T05:13:38.358Z,70.50
2018-04-30T05:16:41.570Z,70.10
2018-04-30T05:19:44.025Z,70.10
2018-04-30T05:22:47.253Z,71.00
2018-04-30T05:25:49.698Z,71.00
2018-04-30T05:28:52.921Z,72.20
2018-04-30T05:31:55.398Z,72.10
2018-04-30T05:34:57.865Z,71.60
2018-04-30T05:38:00.325Z,70.40
2018-04-30T05:41:03.542Z,68.30
2018-04-30T05:44:05.997Z,69.20
2018-04-30T05:47:09.223Z,67.10
2018-04-30T05:50:11.673Z,67.00
2018-04-30T05:53:14.140Z,63.10
2018-04-30T05:56:16.581Z,60.80
2018-04-30T05:59:19.046Z,58.90
2018-04-30T06:02:21.489Z,58.80
2018-04-30T06:05:23.945Z,60.80
2018-04-30T06:08:27.169Z,65.80
2018-04-30T06:11:29.620Z,65.60
2018-04-30T06:14:32.837Z,67.00
2018-04-30T06:17:35.279Z,67.00
2018-04-30T06:20:38.527Z,67.80
2018-04-30T06:23:40.949Z,67.80
2018-04-30T06:26:43.437Z,68.10
2018-04-30T06:29:45.837Z,68.50
2018-04-30T06:32:48.304Z,68.60
2018-04-30T06:35:54.690Z,68.70
2018-04-30T06:38:58.035Z,69.00
2018-04-30T06:42:05.825Z,68.90
2018-04-30T06:45:31.423Z,68.40
2018-04-30T06:48:35.781Z,68.80
2018-04-30T06:51:49.986Z,68.50
2018-04-30T06:54:53.425Z,67.60
2018-04-30T06:57:56.826Z,67.20
2018-04-30T07:01:00.213Z,67.20
2018-04-30T07:04:03.622Z,67.20
2018-04-30T07:07:13.230Z,66.20
2018-04-30T07:10:16.679Z,65.60
2018-04-30T07:13:25.362Z,65.30
2018-04-30T07:16:29.715Z,64.90
2018-04-30T07:19:35.461Z,64.20
2018-04-30T07:22:37.910Z,64.30
2018-04-30T07:25:42.261Z,63.60
2018-04-30T07:29:03.849Z,63.50
2018-04-30T07:32:09.742Z,63.50
2018-04-30T07:35:14.176Z,63.50
2018-04-30T07:38:27.789Z,63.40
2018-04-30T07:41:40.993Z,64.70
2018-04-30T07:48:33.270Z,65.00
2018-04-30T07:51:40.686Z,65.40
2018-04-30T07:54:43.157Z,66.40
2018-04-30T07:57:50.970Z,66.60
2018-04-30T08:01:04.893Z,66.00
2018-04-30T08:04:09.333Z,66.00
2018-04-30T08:07:19.780Z,65.50
2018-04-30T08:10:32.493Z,64.70
2018-04-30T08:13:38.793Z,64.10
2018-04-30T08:16:41.230Z,63.20
2018-04-30T08:19:44.658Z,61.50
2018-04-30T08:23:07.785Z,61.70
2018-04-30T08:26:15.945Z,59.10
2018-04-30T08:29:21.073Z,56.60
2018-04-30T08:36:02.552Z,55.00
2018-04-30T08:39:06.916Z,54.20
2018-04-30T08:42:16.205Z,51.90
2018-04-30T08:45:29.641Z,51.90
2018-04-30T08:59:21.844Z,50.90
2018-04-30T09:02:25.270Z,52.50
2018-04-30T09:05:35.713Z,53.70
2018-04-30T09:09:03.785Z,55.00
2018-04-30T09:12:07.206Z,56.10
2018-04-30T09:18:49.713Z,57.30
2018-04-30T09:22:02.634Z,57.30
2018-04-30T09:25:05.088Z,58.00
2018-04-30T09:28:09.471Z,57.30
2018-04-30T09:31:18.265Z,57.20
2018-04-30T09:34:22.622Z,56.50
2018-04-30T09:37:25.066Z,56.30
2018-04-30T09:40:41.454Z,56.80
2018-04-30T09:43:51.022Z,55.80
2018-04-30T09:46:53.466Z,55.50
2018-04-30T09:49:59.475Z,56.30
2018-04-30T09:53:02.866Z,56.00
2018-04-30T09:56:18.395Z,56.40
2018-04-30T09:59:20.841Z,56.40
2018-04-30T10:02:24.068Z,59.00
2018-04-30T10:05:26.517Z,58.90
2018-04-30T10:08:29.734Z,58.60
2018-04-30T10:11:32.181Z,58.60
2018-04-30T10:14:35.444Z,58.20
2018-04-30T10:17:41.181Z,57.40
2018-04-30T10:20:45.550Z,57.70
2018-04-30T10:23:49.775Z,59.20
2018-04-30T10:26:55.626Z,59.10
2018-04-30T10:30:05.546Z,62.10
2018-04-30T10:36:38.694Z,60.40
2018-04-30T10:39:41.151Z,60.80
2018-04-30T10:42:43.630Z,60.60
2018-04-30T10:45:46.119Z,59.50
2018-04-30T10:48:48.560Z,58.80
2018-04-30T10:51:51.013Z,57.70
2018-04-30T10:54:53.469Z,57.50
2018-04-30T10:57:56.677Z,56.80
2018-04-30T11:01:17.082Z,56.70
2018-04-30T11:04:31.942Z,56.20
2018-04-30T11:07:34.391Z,54.50
2018-04-30T11:10:37.617Z,55.10
2018-04-30T11:13:55.247Z,54.70
2018-04-30T11:17:11.039Z,54.40
2018-04-30T11:20:13.498Z,52.50
2018-04-30T11:23:16.706Z,52.50
2018-04-30T11:26:39.170Z,52.50
2018-04-30T11:29:48.630Z,52.20
2018-04-30T11:32:51.109Z,52.60
2018-04-30T11:35:53.566Z,53.30
2018-04-30T11:38:56.015Z,53.40
2018-04-30T11:45:43.786Z,52.10
2018-04-30T11:48:46.239Z,51.60
2018-04-30T11:51:53.510Z,50.60
2018-04-30T11:54:55.966Z,50.50
2018-04-30T11:58:04.202Z,50.50
2018-04-30T12:01:06.662Z,50.40
2018-04-30T12:04:09.108Z,50.00
2018-04-30T12:07:12.545Z,49.10
2018-04-30T12:10:14.997Z,49.70
2018-04-30T12:13:17.446Z,49.50
2018-04-30T12:16:19.909Z,47.30
2018-04-30T12:19:22.350Z,48.00
2018-04-30T12:22:24.801Z,47.80
2018-04-30T12:25:27.249Z,47.40
2018-04-30T12:28:29.692Z,46.90
2018-04-30T12:31:32.914Z,46.80
2018-04-30T12:34:35.366Z,46.80
2018-04-30T12:37:38.572Z,47.80
2018-04-30T12:40:41.793Z,48.30
2018-04-30T12:43:44.287Z,48.30
2018-04-30T12:46:47.453Z,47.30
2018-04-30T12:49:49.956Z,47.30
2018-04-30T12:52:53.121Z,47.30
2018-04-30T12:55:55.573Z,47.30
2018-04-30T12:58:58.013Z,47.30
2018-04-30T13:02:00.461Z,48.20
2018-04-30T13:05:02.909Z,47.80
2018-04-30T13:08:06.126Z,48.40
2018-04-30T13:11:08.569Z,48.40
2018-04-30T13:14:11.790Z,48.40
2018-04-30T13:17:14.241Z,48.40
2018-04-30T13:20:17.455Z,46.50
2018-04-30T13:23:19.897Z,46.50
2018-04-30T13:26:22.346Z,47.40
2018-04-30T13:29:24.789Z,47.50
2018-04-30T13:32:27.237Z,47.90
2018-04-30T13:35:30.454Z,45.50
2018-04-30T13:38:32.894Z,45.50
2018-04-30T13:41:35.352Z,46.10
2018-04-30T13:44:37.798Z,44.60
2018-04-30T13:47:40.245Z,46.10
2018-04-30T13:50:43.458Z,45.20
2018-04-30T13:53:45.901Z,45.20
2018-04-30T13:56:48.349Z,47.30
2018-04-30T13:59:50.793Z,44.80
2018-04-30T14:02:53.241Z,45.30
2018-04-30T14:05:56.461Z,45.70
2018-04-30T14:08:58.906Z,45.70
2018-04-30T14:12:07.764Z,44.90
2018-04-30T14:15:10.210Z,44.70
2018-04-30T14:18:12.654Z,44.50
2018-04-30T14:21:15.121Z,44.50
2018-04-30T14:24:17.566Z,43.50
2018-04-30T14:27:20.023Z,43.60
2018-04-30T14:30:29.038Z,44.70
2018-04-30T14:33:31.481Z,44.70
2018-04-30T14:36:33.937Z,44.90
2018-04-30T14:39:36.386Z,44.60
2018-04-30T14:42:39.610Z,44.60
2018-04-30T14:45:42.057Z,44.50
2018-04-30T14:48:45.270Z,43.70
2018-04-30T14:51:47.716Z,43.70
2018-04-30T14:55:01.626Z,44.30
2018-04-30T14:58:04.079Z,44.30
2018-04-30T15:01:06.529Z,45.30
2018-04-30T15:04:09.736Z,45.60
2018-04-30T15:07:12.189Z,45.60
2018-04-30T15:10:15.401Z,44.60
2018-04-30T15:13:17.862Z,44.60
2018-04-30T15:16:20.313Z,44.30
2018-04-30T15:19:22.758Z,43.90
2018-04-30T15:22:25.214Z,44.50
2018-04-30T15:25:27.670Z,42.60
2018-04-30T15:28:30.883Z,44.40
2018-04-30T15:31:33.329Z,44.40
2018-04-30T15:34:35.782Z,44.10
2018-04-30T15:37:38.238Z,44.10
2018-04-30T15:40:40.693Z,43.90
2018-04-30T15:43:43.142Z,43.50
2018-04-30T15:46:46.361Z,43.70
2018-04-30T15:49:48.802Z,43.60
2018-04-30T15:52:51.254Z,44.60
2018-04-30T15:55:53.705Z,43.70
2018-04-30T15:58:56.145Z,43.50
2018-04-30T16:01:59.371Z,41.80
2018-04-30T16:05:05.578Z,41.70
2018-04-30T16:08:08.034Z,41.10
2018-04-30T16:11:10.486Z,40.30
2018-04-30T16:14:12.970Z,40.30
2018-04-30T16:17:16.152Z,37.80
2018-04-30T16:20:18.607Z,37.70
2018-04-30T16:23:21.822Z,38.00
2018-04-30T16:26:24.278Z,38.00
2018-04-30T16:29:27.488Z,39.00
2018-04-30T16:32:29.938Z,39.00
2018-04-30T16:35:33.154Z,37.90
2018-04-30T16:38:35.600Z,37.90
2018-04-30T16:41:38.058Z,37.00
2018-04-30T16:44:40.507Z,37.00
2018-04-30T16:47:42.954Z,36.90
2018-04-30T16:50:46.169Z,37.70
2018-04-30T16:53:48.617Z,37.50
2018-04-30T16:56:51.842Z,37.30
2018-04-30T16:59:54.277Z,37.20
2018-04-30T17:02:57.490Z,38.40
2018-04-30T17:05:59.966Z,37.60
2018-04-30T17:09:03.174Z,38.90
2018-04-30T17:12:05.623Z,38.90
2018-04-30T17:15:08.829Z,38.60
2018-04-30T17:18:12.047Z,38.20
2018-04-30T17:21:14.494Z,38.10
2018-04-30T17:24:17.709Z,38.50
2018-04-30T17:27:20.162Z,38.50
2018-04-30T17:30:23.456Z,39.40
2018-04-30T17:33:25.822Z,39.40
2018-04-30T17:36:28.279Z,39.60
2018-04-30T17:39:30.709Z,39.80
2018-04-30T17:42:33.166Z,38.80
2018-04-30T17:45:36.378Z,39.00
2018-04-30T17:48:38.832Z,39.00
2018-04-30T17:51:42.049Z,39.00
2018-04-30T17:54:44.494Z,39.00
2018-04-30T17:57:46.945Z,39.50
2018-04-30T18:00:49.392Z,40.10
2018-04-30T18:03:51.838Z,39.60
2018-04-30T18:06:55.135Z,40.90
2018-04-30T18:09:57.509Z,40.90
2018-04-30T18:13:00.727Z,41.20
2018-04-30T18:16:03.180Z,41.20
2018-04-30T18:19:06.395Z,42.40
2018-04-30T18:22:08.853Z,42.30
2018-04-30T18:25:12.061Z,42.80
2018-04-30T18:28:14.509Z,42.80
2018-04-30T18:31:17.721Z,43.70
2018-04-30T18:34:20.173Z,43.60
2018-04-30T18:37:22.625Z,43.80
2018-04-30T18:40:25.079Z,43.90
2018-04-30T18:43:27.525Z,44.30
2018-04-30T18:46:29.979Z,44.70
2018-04-30T18:49:32.428Z,44.80
2018-04-30T18:52:34.877Z,45.20
2018-04-30T18:55:37.322Z,45.60
2018-04-30T18:58:40.554Z,46.20
2018-04-30T19:01:42.997Z,46.10
2018-04-30T19:04:46.201Z,46.70
2018-04-30T19:07:48.649Z,46.60
2018-04-30T19:10:51.089Z,47.20
2018-04-30T19:13:53.542Z,47.20
2018-04-30T19:16:55.998Z,47.10
2018-04-30T19:19:58.437Z,47.30
2018-04-30T19:23:00.886Z,47.50
2018-04-30T19:26:03.342Z,47.90
2018-04-30T19:29:05.795Z,48.30
2018-04-30T19:32:09.022Z,48.50
2018-04-30T19:35:11.473Z,48.50
2018-04-30T19:38:14.685Z,49.60
2018-04-30T19:41:17.138Z,49.50
2018-04-30T19:44:20.357Z,50.30
2018-04-30T19:47:22.805Z,50.30
2018-04-30T19:50:26.022Z,50.60
2018-04-30T19:53:28.473Z,50.60
2018-04-30T19:56:30.917Z,50.50
2018-04-30T19:59:33.373Z,50.80
2018-04-30T20:02:35.830Z,51.00
2018-04-30T20:05:38.273Z,51.10
2018-04-30T20:08:40.737Z,51.20
2018-04-30T20:11:43.181Z,51.40
2018-04-30T20:14:45.632Z,51.10
2018-04-30T20:17:48.089Z,50.70
2018-04-30T20:20:50.531Z,50.60
2018-04-30T20:23:52.987Z,51.20
2018-04-30T20:26:55.431Z,50.60
2018-04-30T20:29:58.649Z,50.60
2018-04-30T20:33:01.102Z,50.60
2018-04-30T20:36:03.545Z,50.30
2018-04-30T20:39:06.002Z,50.20
2018-04-30T20:42:08.465Z,49.80
2018-04-30T20:45:10.925Z,50.00
2018-04-30T20:48:13.369Z,49.90
2018-04-30T20:51:15.805Z,49.80
2018-04-30T20:54:18.263Z,49.70
2018-04-30T20:57:20.709Z,49.70
2018-04-30T21:00:23.166Z,49.50
2018-04-30T21:03:25.610Z,49.80
2018-04-30T21:06:28.076Z,49.60
2018-04-30T21:09:30.513Z,49.70
2018-04-30T21:12:32.969Z,49.60
2018-04-30T21:15:35.402Z,50.00
2018-04-30T21:18:37.854Z,50.20
2018-04-30T21:21:40.293Z,50.60
2018-04-30T21:24:42.757Z,51.30
2018-04-30T21:27:45.211Z,51.60
2018-04-30T21:30:47.666Z,51.90
2018-04-30T21:33:50.118Z,52.90
2018-04-30T21:36:53.326Z,52.90
2018-04-30T21:39:55.779Z,52.80
2018-04-30T21:42:58.230Z,52.90
2018-04-30T21:46:00.676Z,53.30
2018-04-30T21:49:03.122Z,52.90
2018-04-30T21:52:06.334Z,52.30
2018-04-30T21:55:08.789Z,52.30
2018-04-30T21:58:12.006Z,51.80
2018-04-30T22:01:14.454Z,51.70
2018-04-30T22:04:17.678Z,51.60
2018-04-30T22:07:20.129Z,51.00
2018-04-30T22:10:23.349Z,50.50
2018-04-30T22:13:25.797Z,50.50
2018-04-30T22:16:29.014Z,51.00
2018-04-30T22:19:31.461Z,51.00
2018-04-30T22:22:33.901Z,50.80
2018-04-30T22:25:36.354Z,51.20
2018-04-30T22:28:38.813Z,51.30
2018-04-30T22:31:41.254Z,51.30
2018-04-30T22:34:43.706Z,50.90
2018-04-30T22:37:46.159Z,50.80
2018-04-30T22:40:48.605Z,50.90
2018-04-30T22:43:51.834Z,50.60
2018-04-30T22:46:54.277Z,50.40
2018-04-30T22:49:57.497Z,50.90
2018-04-30T22:52:59.954Z,50.90
2018-04-30T22:56:03.183Z,49.70
2018-04-30T22:59:05.626Z,49.70
2018-04-30T23:02:08.837Z,48.40
2018-04-30T23:05:11.293Z,48.90
2018-04-30T23:08:14.510Z,49.70
2018-04-30T23:11:16.957Z,49.50
2018-04-30T23:14:19.401Z,50.00
2018-04-30T23:17:21.844Z,50.50
2018-04-30T23:20:24.293Z,50.70
2018-04-30T23:23:27.522Z,51.10
2018-04-30T23:26:29.965Z,51.10
2018-04-30T23:29:33.186Z,51.60
2018-04-30T23:32:35.625Z,51.60
2018-04-30T23:35:38.074Z,51.70
2018-04-30T23:38:40.537Z,51.80
2018-04-30T23:41:42.984Z,51.70
2018-04-30T23:44:45.434Z,52.10
2018-04-30T23:47:48.654Z,52.50
2018-04-30T23:50:51.110Z,52.40
2018-04-30T23:53:54.326Z,52.70
2018-04-30T23:56:56.766Z,52.60
2018-04-30T23:59:59.215Z,52.50
